createdAt,value
2016-07-22T00:00:05.913Z,85.94
2016-07-22T00:01:05.902Z,86.1
2016-07-22T00:02:05.184Z,86.1
2016-07-22T00:03:05.889Z,86.04
2016-07-22T00:04:05.884Z,86.1
2016-07-22T00:05:05.872Z,85.52
2016-07-22T00:06:05.155Z,85.56
2016-07-22T00:07:05.154Z,85.37
2016-07-22T00:08:05.851Z,86.04
2016-07-22T00:09:05.845Z,86.52
2016-07-22T00:10:05.129Z,86.52
2016-07-22T00:11:05.121Z,86.33
2016-07-22T00:12:05.824Z,86.39
2016-07-22T00:13:05.836Z,85.61
2016-07-22T00:14:05.807Z,85.75
2016-07-22T00:15:05.803Z,86.04
2016-07-22T00:16:05.094Z,85.94
2016-07-22T00:17:05.075Z,86.1
2016-07-22T00:18:05.070Z,86.14
2016-07-22T00:19:05.061Z,85.81
2016-07-22T00:20:05.057Z,85.81
2016-07-22T00:21:05.047Z,86.39
2016-07-22T00:22:05.038Z,86.19
2016-07-22T00:23:05.740Z,86.19
2016-07-22T00:24:05.027Z,85.81
2016-07-22T00:25:05.021Z,85.91
2016-07-22T00:26:05.019Z,86.29
2016-07-22T00:27:05.710Z,86.29
2016-07-22T00:28:05.707Z,86.77
2016-07-22T00:29:05.700Z,86.48
2016-07-22T00:30:04.981Z,87.06
2016-07-22T00:31:04.976Z,86.87
2016-07-22T00:32:04.968Z,86.87
2016-07-22T00:33:05.664Z,87.06
2016-07-22T00:34:04.950Z,86.77
2016-07-22T00:35:04.947Z,87.06
2016-07-22T00:36:05.641Z,87.16
2016-07-22T00:37:05.634Z,87.06
2016-07-22T00:38:04.922Z,87.16
2016-07-22T00:39:05.621Z,87.35
2016-07-22T00:40:04.909Z,87.54
2016-07-22T00:41:04.899Z,87.54
2016-07-22T00:42:04.891Z,87.74
2016-07-22T00:43:04.888Z,87.64
2016-07-22T00:44:05.585Z,87.35
2016-07-22T00:45:04.920Z,87.35
2016-07-22T00:46:05.567Z,88.02
2016-07-22T00:47:05.563Z,87.83
2016-07-22T00:48:05.555Z,87.74
2016-07-22T00:49:05.551Z,87.93
2016-07-22T00:50:04.830Z,88.22
2016-07-22T00:51:05.531Z,88.7
2016-07-22T00:52:04.818Z,88.79
2016-07-22T00:53:04.809Z,88.41
2016-07-22T00:54:04.804Z,88.31
2016-07-22T00:55:04.794Z,88.41
2016-07-22T00:56:04.797Z,88.41
2016-07-22T00:57:05.489Z,88.79
2016-07-22T00:58:05.484Z,88.7
2016-07-22T00:59:05.471Z,88.6
2016-07-22T01:00:04.759Z,88.7
2016-07-22T01:01:04.751Z,88.79
2016-07-22T01:02:05.450Z,88.41
2016-07-22T01:03:05.443Z,88.51
2016-07-22T01:04:05.438Z,88.22
2016-07-22T01:05:05.425Z,88.12
2016-07-22T01:06:04.712Z,88.79
2016-07-22T01:07:04.705Z,88.41
2016-07-22T01:08:04.699Z,88.51
2016-07-22T01:09:05.395Z,88.41
2016-07-22T01:10:04.683Z,89.18
2016-07-22T01:11:05.386Z,89.37
2016-07-22T01:12:04.668Z,89.28
2016-07-22T01:13:04.661Z,88.6
2016-07-22T01:14:04.650Z,89.09
2016-07-22T01:15:05.354Z,89.09
2016-07-22T01:16:05.340Z,88.41
2016-07-22T01:17:04.631Z,89.09
2016-07-22T01:18:05.331Z,89.09
2016-07-22T01:19:05.320Z,88.99
2016-07-22T01:20:04.626Z,88.89
2016-07-22T01:21:05.336Z,88.89
2016-07-22T01:22:04.614Z,88.99
2016-07-22T01:23:04.586Z,89.28
2016-07-22T01:24:05.290Z,89.28
2016-07-22T01:25:04.569Z,89.28
2016-07-22T01:26:04.562Z,89.47
2016-07-22T01:27:04.555Z,89.37
2016-07-22T01:28:04.552Z,88.7
2016-07-22T01:29:05.245Z,89.37
2016-07-22T01:30:05.239Z,89.18
2016-07-22T01:31:04.523Z,89.67
2016-07-22T01:32:05.239Z,89.37
2016-07-22T01:33:04.509Z,89.72
2016-07-22T01:34:05.208Z,89.81
2016-07-22T01:35:05.201Z,89.95
2016-07-22T01:37:04.480Z,90.15
2016-07-22T01:38:05.177Z,90.05
2016-07-22T01:39:04.463Z,90.05
2016-07-22T01:40:04.458Z,90.44
2016-07-22T01:41:04.445Z,90.53
2016-07-22T01:42:04.441Z,90.44
2016-07-22T01:43:04.432Z,90.44
2016-07-22T01:44:05.137Z,90.63
2016-07-22T01:45:04.420Z,90.53
2016-07-22T01:46:04.413Z,90.72
2016-07-22T01:47:04.404Z,90.53
2016-07-22T01:48:05.101Z,90.53
2016-07-22T01:49:05.098Z,90.53
2016-07-22T01:50:04.390Z,90.44
2016-07-22T01:51:04.376Z,90.63
2016-07-22T01:52:05.077Z,90.34
2016-07-22T01:53:05.067Z,90.92
2016-07-22T01:54:04.350Z,90.92
2016-07-22T01:55:04.345Z,90.63
2016-07-22T01:56:04.336Z,91.2
2016-07-22T01:57:05.035Z,91.2
2016-07-22T01:58:04.321Z,91.4
2016-07-22T01:59:04.315Z,91.02
2016-07-22T02:00:04.305Z,90.92
2016-07-22T02:01:04.300Z,90.92
2016-07-22T02:02:04.289Z,91.02
2016-07-22T02:03:04.284Z,91.3
2016-07-22T02:04:04.985Z,91.4
2016-07-22T02:05:04.271Z,91.6
2016-07-22T02:06:04.262Z,91.6
2016-07-22T02:07:04.956Z,91.78
2016-07-22T02:08:04.245Z,91.69
2016-07-22T02:09:04.237Z,91.2
2016-07-22T02:10:04.231Z,91.5
2016-07-22T02:11:04.932Z,91.78
2016-07-22T02:12:04.213Z,91.6
2016-07-22T02:13:04.922Z,91.88
2016-07-22T02:14:04.916Z,91.5
2016-07-22T02:15:04.906Z,91.4
2016-07-22T02:16:04.894Z,91.3
2016-07-22T02:17:04.178Z,92.03
2016-07-22T02:18:04.875Z,91.93
2016-07-22T02:19:04.869Z,91.64
2016-07-22T02:20:04.154Z,92.03
2016-07-22T02:21:04.147Z,92.22
2016-07-22T02:22:04.138Z,91.55
2016-07-22T02:23:04.836Z,91.83
2016-07-22T02:24:04.126Z,91.74
2016-07-22T02:25:04.114Z,91.83
2016-07-22T02:26:04.107Z,92.32
2016-07-22T02:27:04.807Z,92.99
2016-07-22T02:28:04.092Z,92.51
2016-07-22T02:29:04.085Z,92.61
2016-07-22T02:30:04.078Z,92.61
2016-07-22T02:31:04.082Z,92.51
2016-07-22T02:32:04.063Z,92.41
2016-07-22T02:33:04.758Z,92.32
2016-07-22T02:34:04.048Z,92.32
2016-07-22T02:35:04.039Z,92.13
2016-07-22T02:36:04.030Z,92.22
2016-07-22T02:37:04.023Z,92.13
2016-07-22T02:38:04.015Z,92.41
2016-07-22T02:39:04.019Z,92.22
2016-07-22T02:40:04.707Z,91.93
2016-07-22T02:41:04.053Z,92.13
2016-07-22T02:42:03.988Z,92.22
2016-07-22T02:43:03.976Z,92.22
2016-07-22T02:44:03.970Z,92.51
2016-07-22T02:45:03.960Z,92.32
2016-07-22T02:46:03.956Z,92.22
2016-07-22T02:47:03.947Z,92.32
2016-07-22T02:48:04.650Z,92.22
2016-07-22T02:49:04.641Z,92.22
2016-07-22T02:50:03.929Z,92.13
2016-07-22T02:51:03.917Z,92.27
2016-07-22T02:52:04.618Z,92.41
2016-07-22T02:53:03.903Z,93.28
2016-07-22T02:54:04.612Z,93.19
2016-07-22T02:55:04.594Z,93.28
2016-07-22T02:56:03.940Z,93.38
2016-07-22T02:57:04.576Z,93.57
2016-07-22T02:58:04.572Z,93.57
2016-07-22T02:59:03.858Z,93.76
2016-07-22T03:00:04.554Z,93.38
2016-07-22T03:01:03.839Z,93.76
2016-07-22T03:02:03.836Z,93.19
2016-07-22T03:03:03.825Z,93.09
2016-07-22T03:04:04.522Z,93.19
2016-07-22T03:05:03.809Z,92.99
2016-07-22T03:06:03.799Z,93.09
2016-07-22T03:07:04.505Z,92.99
2016-07-22T03:08:03.784Z,93.09
2016-07-22T03:09:03.777Z,93.57
2016-07-22T03:10:03.767Z,93.09
2016-07-22T03:11:04.467Z,92.99
2016-07-22T03:12:03.757Z,93.09
2016-07-22T03:13:03.742Z,92.99
2016-07-22T03:14:03.737Z,92.99
2016-07-22T03:15:04.438Z,93.19
2016-07-22T03:16:04.430Z,92.99
2016-07-22T03:17:04.424Z,93.19
2016-07-22T03:18:03.708Z,92.9
2016-07-22T03:19:04.406Z,94.06
2016-07-22T03:20:03.687Z,94.54
2016-07-22T03:21:03.682Z,94.34
2016-07-22T03:22:03.681Z,93.96
2016-07-22T03:23:04.372Z,94.73
2016-07-22T03:24:04.364Z,94.54
2016-07-22T03:25:03.647Z,94.54
2016-07-22T03:26:03.643Z,94.24
2016-07-22T03:27:03.642Z,93.86
2016-07-22T03:28:03.627Z,94.06
2016-07-22T03:29:04.385Z,94.24
2016-07-22T03:30:04.318Z,94.15
2016-07-22T03:31:03.604Z,94.24
2016-07-22T03:32:04.301Z,94.06
2016-07-22T03:33:03.637Z,94.34
2016-07-22T03:34:03.582Z,94.15
2016-07-22T03:35:03.576Z,93.96
2016-07-22T03:36:04.288Z,94.34
2016-07-22T03:37:04.265Z,93.96
2016-07-22T03:38:04.259Z,93.48
2016-07-22T03:39:04.251Z,93.96
2016-07-22T03:40:03.534Z,94.15
2016-07-22T03:41:03.573Z,94.06
2016-07-22T03:42:03.529Z,94.06
2016-07-22T03:43:03.516Z,94.15
2016-07-22T03:44:04.215Z,94.15
2016-07-22T03:45:03.496Z,93.66
2016-07-22T03:46:03.485Z,93.96
2016-07-22T03:47:03.486Z,93.66
2016-07-22T03:48:03.469Z,93.86
2016-07-22T03:49:03.465Z,94.06
2016-07-22T03:50:04.161Z,94.24
2016-07-22T03:51:03.453Z,94.54
2016-07-22T03:52:04.144Z,94.34
2016-07-22T03:53:04.145Z,94.44
2016-07-22T03:54:03.425Z,94.73
2016-07-22T03:55:03.414Z,94.82
2016-07-22T03:56:03.407Z,94.73
2016-07-22T03:57:03.402Z,94.87
2016-07-22T03:58:04.110Z,94.73
2016-07-22T03:59:03.386Z,94.68
2016-07-22T04:00:04.086Z,94.39
2016-07-22T04:01:03.366Z,94.68
2016-07-22T04:02:03.357Z,94.59
2016-07-22T04:03:03.356Z,94.73
2016-07-22T04:04:04.050Z,94.39
2016-07-22T04:05:04.052Z,94.63
2016-07-22T04:06:04.035Z,94.82
2016-07-22T04:07:03.320Z,94.44
2016-07-22T04:08:03.312Z,95.31
2016-07-22T04:09:04.026Z,95.31
2016-07-22T04:10:04.004Z,95.11
2016-07-22T04:11:03.288Z,95.11
2016-07-22T04:12:03.986Z,94.63
2016-07-22T04:13:03.281Z,94.63
2016-07-22T04:14:04.023Z,94.82
2016-07-22T04:15:03.963Z,94.73
2016-07-22T04:16:03.254Z,94.92
2016-07-22T04:17:03.945Z,94.63
2016-07-22T04:18:03.232Z,95.11
2016-07-22T04:19:03.931Z,94.34
2016-07-22T04:20:03.924Z,95.02
2016-07-22T04:21:03.916Z,94.73
2016-07-22T04:22:03.205Z,95.4
2016-07-22T04:23:03.190Z,95.5
2016-07-22T04:24:03.186Z,94.92
2016-07-22T04:25:03.885Z,94.73
2016-07-22T04:26:03.175Z,94.73
2016-07-22T04:27:03.866Z,94.92
2016-07-22T04:28:03.155Z,94.82
2016-07-22T04:29:03.143Z,94.34
2016-07-22T04:30:03.153Z,95.11
2016-07-22T04:31:03.132Z,94.82
2016-07-22T04:32:03.126Z,94.63
2016-07-22T04:33:03.124Z,95.4
2016-07-22T04:34:03.106Z,94.92
2016-07-22T04:35:03.102Z,94.82
2016-07-22T04:36:03.132Z,94.82
2016-07-22T04:37:03.094Z,94.63
2016-07-22T04:38:03.794Z,94.54
2016-07-22T04:39:03.072Z,94.73
2016-07-22T04:40:03.062Z,94.54
2016-07-22T04:41:03.053Z,94.54
2016-07-22T04:42:03.048Z,94.73
2016-07-22T04:43:03.035Z,94.73
2016-07-22T04:44:03.027Z,94.82
2016-07-22T04:45:03.026Z,94.34
2016-07-22T04:46:03.015Z,94.63
2016-07-22T04:47:03.715Z,94.73
2016-07-22T04:48:03.709Z,94.44
2016-07-22T04:49:03.712Z,94.73
2016-07-22T04:50:02.985Z,94.73
2016-07-22T04:51:02.980Z,94.54
2016-07-22T04:52:03.674Z,94.92
2016-07-22T04:53:02.959Z,94.54
2016-07-22T04:54:03.667Z,94.82
2016-07-22T04:55:02.946Z,94.63
2016-07-22T04:56:02.939Z,94.54
2016-07-22T04:57:02.931Z,94.39
2016-07-22T04:58:02.921Z,94.34
2016-07-22T04:59:02.913Z,94.54
2016-07-22T05:00:02.908Z,94.68
2016-07-22T05:01:03.609Z,94.68
2016-07-22T05:02:02.893Z,94.82
2016-07-22T05:03:03.592Z,94.92
2016-07-22T05:04:03.585Z,94.92
2016-07-22T05:05:02.867Z,94.82
2016-07-22T05:06:02.872Z,95.11
2016-07-22T05:07:03.569Z,95.21
2016-07-22T05:08:02.848Z,94.68
2016-07-22T05:09:03.549Z,95.16
2016-07-22T05:10:02.830Z,95.16
2016-07-22T05:11:02.823Z,94.48
2016-07-22T05:12:03.522Z,94.39
2016-07-22T05:13:03.514Z,94.1
2016-07-22T05:14:02.801Z,94.1
2016-07-22T05:15:03.498Z,94.2
2016-07-22T05:16:02.785Z,94.29
2016-07-22T05:17:03.484Z,94
2016-07-22T05:18:02.766Z,94.1
2016-07-22T05:19:03.474Z,94.2
2016-07-22T05:20:02.753Z,94.1
2016-07-22T05:21:03.455Z,94.2
2016-07-22T05:22:03.448Z,94.2
2016-07-22T05:23:03.439Z,94.58
2016-07-22T05:24:02.723Z,94.2
2016-07-22T05:25:03.423Z,94.1
2016-07-22T05:26:02.710Z,94.58
2016-07-22T05:27:03.415Z,93.71
2016-07-22T05:28:03.400Z,93.52
2016-07-22T05:29:02.690Z,94.2
2016-07-22T05:30:03.388Z,93.81
2016-07-22T05:31:02.671Z,93.62
2016-07-22T05:32:02.664Z,93.71
2016-07-22T05:33:03.364Z,93.33
2016-07-22T05:34:03.358Z,93.28
2016-07-22T05:35:03.352Z,92.94
2016-07-22T05:36:02.636Z,93.28
2016-07-22T05:37:03.386Z,93.08
2016-07-22T05:38:03.351Z,93.28
2016-07-22T05:39:02.619Z,93.18
2016-07-22T05:40:02.606Z,93.28
2016-07-22T05:41:03.313Z,93.08
2016-07-22T05:42:02.591Z,92.41
2016-07-22T05:43:02.584Z,92.6
2016-07-22T05:44:03.282Z,93.18
2016-07-22T05:45:02.569Z,93.76
2016-07-22T05:46:02.562Z,93.85
2016-07-22T05:47:03.260Z,93.37
2016-07-22T05:48:02.547Z,93.18
2016-07-22T05:49:03.309Z,93.08
2016-07-22T05:50:02.532Z,92.8
2016-07-22T05:51:02.523Z,93.18
2016-07-22T05:52:02.515Z,93.08
2016-07-22T05:53:03.215Z,92.89
2016-07-22T05:54:02.499Z,92.99
2016-07-22T05:55:02.492Z,93.28
2016-07-22T05:56:03.195Z,92.89
2016-07-22T05:57:02.485Z,93.37
2016-07-22T05:58:02.468Z,92.6
2016-07-22T05:59:03.177Z,92.5
2016-07-22T06:00:02.456Z,92.22
2016-07-22T06:01:02.455Z,91.93
2016-07-22T06:02:02.455Z,91.83
2016-07-22T06:03:02.435Z,92.22
2016-07-22T06:04:02.430Z,92.32
2016-07-22T06:05:02.418Z,92.41
2016-07-22T06:06:02.411Z,91.83
2016-07-22T06:07:02.406Z,91.88
2016-07-22T06:08:02.397Z,91.97
2016-07-22T06:09:03.099Z,92.16
2016-07-22T06:10:03.092Z,91.97
2016-07-22T06:11:03.086Z,91.59
2016-07-22T06:12:02.374Z,91.68
2016-07-22T06:13:02.362Z,91.88
2016-07-22T06:14:03.072Z,91.59
2016-07-22T06:15:02.347Z,91.01
2016-07-22T06:16:02.344Z,91.01
2016-07-22T06:17:03.045Z,91.11
2016-07-22T06:18:03.034Z,90.91
2016-07-22T06:19:02.319Z,91.01
2016-07-22T06:20:02.312Z,90.91
2016-07-22T06:21:03.013Z,90.33
2016-07-22T06:22:02.300Z,90.28
2016-07-22T06:23:03.008Z,90.47
2016-07-22T06:24:02.284Z,90.23
2016-07-22T06:25:02.280Z,90.37
2016-07-22T06:26:02.271Z,90.57
2016-07-22T06:27:02.974Z,90.37
2016-07-22T06:28:02.256Z,90.77
2016-07-22T06:29:02.248Z,91.15
2016-07-22T06:30:02.243Z,91.05
2016-07-22T06:31:02.245Z,91.05
2016-07-22T06:32:02.939Z,90.47
2016-07-22T06:33:02.228Z,90.47
2016-07-22T06:34:02.920Z,90.47
2016-07-22T06:35:02.224Z,90.28
2016-07-22T06:36:02.199Z,90.19
2016-07-22T06:37:02.193Z,89.7
2016-07-22T06:38:02.895Z,89.99
2016-07-22T06:39:02.892Z,90.28
2016-07-22T06:40:02.377Z,89.79
2016-07-22T06:41:02.169Z,90.28
2016-07-22T06:42:02.866Z,89.51
2016-07-22T06:43:02.154Z,89.51
2016-07-22T06:44:02.208Z,89.36
2016-07-22T06:45:02.138Z,89.99
2016-07-22T06:46:02.138Z,89.79
2016-07-22T06:47:02.833Z,89.45
2016-07-22T06:48:02.827Z,89.65
2016-07-22T06:49:02.110Z,89.55
2016-07-22T06:50:02.814Z,89.55
2016-07-22T06:51:02.098Z,89.75
2016-07-22T06:52:02.092Z,89.26
2016-07-22T06:53:02.789Z,89.65
2016-07-22T06:54:02.081Z,89.17
2016-07-22T06:55:02.069Z,88.97
2016-07-22T06:56:02.772Z,89.17
2016-07-22T06:57:02.064Z,88.53
2016-07-22T06:58:02.760Z,88.53
2016-07-22T06:59:02.046Z,87.95
2016-07-22T07:00:02.036Z,87.95
2016-07-22T07:01:02.032Z,88.73
2016-07-22T07:02:02.025Z,88.73
2016-07-22T07:03:02.022Z,88.82
2016-07-22T07:04:02.012Z,88.53
2016-07-22T07:05:02.006Z,88.92
2016-07-22T07:06:01.999Z,88.73
2016-07-22T07:07:01.990Z,88.34
2016-07-22T07:08:01.984Z,88.34
2016-07-22T07:09:02.685Z,87.32
2016-07-22T07:10:02.676Z,87.61
2016-07-22T07:11:01.966Z,87.71
2016-07-22T07:12:02.665Z,87.51
2016-07-22T07:13:02.657Z,87.41
2016-07-22T07:14:01.945Z,87.81
2016-07-22T07:15:02.644Z,87.9
2016-07-22T07:16:02.649Z,88.67
2016-07-22T07:17:02.632Z,87.81
2016-07-22T07:18:02.626Z,87.36
2016-07-22T07:19:01.917Z,87.17
2016-07-22T07:20:02.614Z,86.88
2016-07-22T07:21:01.894Z,86.2
2016-07-22T07:22:01.893Z,85.62
2016-07-22T07:23:02.595Z,86.2
2016-07-22T07:24:02.587Z,86.4
2016-07-22T07:25:02.581Z,85.52
2016-07-22T07:26:01.868Z,85.04
2016-07-22T07:27:01.860Z,85.14
2016-07-22T07:28:01.856Z,85.37
2016-07-22T07:29:01.849Z,85.76
2016-07-22T07:30:02.549Z,86.01
2016-07-22T07:31:01.839Z,85.72
2016-07-22T07:32:01.832Z,85.52
2016-07-22T07:33:02.530Z,85.37
2016-07-22T07:34:01.820Z,84.5
2016-07-22T07:35:01.817Z,84.79
2016-07-22T07:36:01.805Z,84.6
2016-07-22T07:37:02.523Z,85.08
2016-07-22T07:38:02.501Z,84.41
2016-07-22T07:39:01.790Z,85.08
2016-07-22T07:40:02.490Z,84.6
2016-07-22T07:41:01.784Z,84.41
2016-07-22T07:42:02.480Z,83.18
2016-07-22T07:43:01.764Z,83.03
2016-07-22T07:44:01.759Z,82.55
2016-07-22T07:45:02.461Z,81.58
2016-07-22T07:46:01.746Z,82.26
2016-07-22T07:47:02.450Z,82.45
2016-07-22T07:48:01.737Z,82.55
2016-07-22T07:49:02.449Z,83.38
2016-07-22T07:50:02.433Z,83
2016-07-22T07:51:02.424Z,82.9
2016-07-22T07:52:01.713Z,82.45
2016-07-22T07:53:01.709Z,82.94
2016-07-22T07:54:02.410Z,82.17
2016-07-22T07:55:01.696Z,82.45
2016-07-22T07:56:02.400Z,82.07
2016-07-22T07:57:01.687Z,82.45
2016-07-22T07:58:01.680Z,82.45
2016-07-22T07:59:01.674Z,81.43
2016-07-22T08:00:01.672Z,80.85
2016-07-22T08:01:02.374Z,79.24
2016-07-22T08:02:02.366Z,79.68
2016-07-22T08:03:02.363Z,80.17
2016-07-22T08:04:01.650Z,81.04
2016-07-22T08:05:01.646Z,81.13
2016-07-22T08:06:01.640Z,80.75
2016-07-22T08:07:02.352Z,79.88
2016-07-22T08:08:02.335Z,80.3
2016-07-22T08:09:01.625Z,79.28
2016-07-22T08:10:02.324Z,79.28
2016-07-22T08:11:01.614Z,79.76
2016-07-22T08:12:02.310Z,80.69
2016-07-22T08:13:02.308Z,80.79
2016-07-22T08:14:01.600Z,80.3
2016-07-22T08:15:01.594Z,80.6
2016-07-22T08:16:02.295Z,80.69
2016-07-22T08:17:01.580Z,80.5
2016-07-22T08:18:01.576Z,79.47
2016-07-22T08:19:01.576Z,78.34
2016-07-22T08:20:02.271Z,78.05
2016-07-22T08:21:02.269Z,77.95
2016-07-22T08:22:02.261Z,77.18
2016-07-22T08:23:02.258Z,77.67
2016-07-22T08:24:02.260Z,78.44
2016-07-22T08:25:01.543Z,77.28
2016-07-22T08:26:01.544Z,77.95
2016-07-22T08:27:02.236Z,78.83
2016-07-22T08:28:01.527Z,78.83
2016-07-22T08:29:01.526Z,79.02
2016-07-22T08:30:02.225Z,79.08
2016-07-22T08:31:01.514Z,78.99
2016-07-22T08:32:01.509Z,79.57
2016-07-22T08:33:01.503Z,79.47
2016-07-22T08:34:01.500Z,79.66
2016-07-22T08:35:02.201Z,79.76
2016-07-22T08:36:02.197Z,79.96
2016-07-22T08:37:01.485Z,79.37
2016-07-22T08:38:02.185Z,79.47
2016-07-22T08:39:02.179Z,79.37
2016-07-22T08:40:02.380Z,78.99
2016-07-22T08:41:02.171Z,79.76
2016-07-22T08:42:01.459Z,80.15
2016-07-22T08:43:01.455Z,80.88
2016-07-22T08:44:01.450Z,80.3
2016-07-22T08:45:01.446Z,79.53
2016-07-22T08:46:02.144Z,80.01
2016-07-22T08:47:02.140Z,80.4
2016-07-22T08:48:01.438Z,80.94
2016-07-22T08:49:01.425Z,80.85
2016-07-22T08:50:01.417Z,81.43
2016-07-22T08:51:02.125Z,81.13
2016-07-22T08:52:01.408Z,80.65
2016-07-22T08:53:01.401Z,81.04
2016-07-22T08:54:01.401Z,81.23
2016-07-22T08:55:01.399Z,81.13
2016-07-22T08:56:02.097Z,81.72
2016-07-22T08:57:01.387Z,82.01
2016-07-22T08:58:01.375Z,81.23
2016-07-22T08:59:02.081Z,81.43
2016-07-22T09:00:02.073Z,81.52
2016-07-22T09:01:01.367Z,82.3
2016-07-22T09:02:01.356Z,81.72
2016-07-22T09:03:01.351Z,82.01
2016-07-22T09:04:01.345Z,81.82
2016-07-22T09:05:02.047Z,81.72
2016-07-22T09:06:01.331Z,82.1
2016-07-22T09:07:02.036Z,81.33
2016-07-22T09:08:01.323Z,80.94
2016-07-22T09:09:01.317Z,80.94
2016-07-22T09:10:01.312Z,80.65
2016-07-22T09:11:02.020Z,80.4
2016-07-22T09:12:02.005Z,79.33
2016-07-22T09:13:02.005Z,80.11
2016-07-22T09:14:01.288Z,80.11
2016-07-22T09:15:01.993Z,79.33
2016-07-22T09:16:01.281Z,78.59
2016-07-22T09:17:01.983Z,78.59
2016-07-22T09:18:01.975Z,79.47
2016-07-22T09:19:01.268Z,78.21
2016-07-22T09:20:01.262Z,78.07
2016-07-22T09:21:01.255Z,78.46
2016-07-22T09:22:01.255Z,78.56
2016-07-22T09:23:01.957Z,78.17
2016-07-22T09:24:01.946Z,77.88
2016-07-22T09:25:01.234Z,78.27
2016-07-22T09:26:01.226Z,78.71
2016-07-22T09:27:01.230Z,78.81
2016-07-22T09:28:01.925Z,78.33
2016-07-22T09:29:01.212Z,78.71
2016-07-22T09:30:01.219Z,78.03
2016-07-22T09:31:01.912Z,79.49
2016-07-22T09:32:01.199Z,79
2016-07-22T09:33:01.191Z,78.23
2016-07-22T09:34:01.189Z,78.52
2016-07-22T09:35:01.182Z,77.03
2016-07-22T09:36:01.883Z,77.61
2016-07-22T09:37:01.877Z,78.58
2016-07-22T09:38:01.169Z,78.38
2016-07-22T09:39:01.163Z,76.54
2016-07-22T09:40:01.866Z,77.12
2016-07-22T09:41:01.158Z,77.51
2016-07-22T09:42:01.904Z,76.64
2016-07-22T09:43:01.142Z,76.93
2016-07-22T09:44:01.135Z,76.97
2016-07-22T09:45:01.130Z,75.9
2016-07-22T09:46:01.125Z,76.1
2016-07-22T09:47:01.121Z,75.32
2016-07-22T09:48:01.120Z,75.42
2016-07-22T09:49:01.112Z,76.19
2016-07-22T09:50:01.104Z,76.78
2016-07-22T09:51:01.100Z,76.45
2016-07-22T09:52:01.804Z,75.71
2016-07-22T09:53:01.794Z,76.25
2016-07-22T09:54:01.085Z,76.15
2016-07-22T09:55:01.789Z,76.54
2016-07-22T09:56:01.075Z,76.83
2016-07-22T09:57:01.069Z,76.79
2016-07-22T09:58:01.767Z,75.54
2016-07-22T09:59:01.767Z,75.98
2016-07-22T10:00:01.054Z,76.18
2016-07-22T10:01:01.049Z,76.53
2016-07-22T10:02:01.045Z,76.82
2016-07-22T10:03:01.742Z,76.59
2016-07-22T10:04:01.031Z,76.97
2016-07-22T10:05:01.026Z,77.26
2016-07-22T10:06:01.019Z,77.55
2016-07-22T10:07:01.025Z,77.26
2016-07-22T10:08:01.007Z,76.78
2016-07-22T10:09:01.709Z,77.26
2016-07-22T10:10:01.704Z,77.94
2016-07-22T10:11:01.699Z,77.84
2016-07-22T10:12:00.989Z,78.03
2016-07-22T10:13:01.698Z,77.71
2016-07-22T10:14:00.979Z,76.68
2016-07-22T10:15:01.683Z,75.87
2016-07-22T10:16:00.961Z,76.26
2016-07-22T10:17:00.954Z,77.03
2016-07-22T10:18:00.950Z,76.74
2016-07-22T10:19:01.652Z,76.26
2016-07-22T10:20:01.645Z,75.91
2016-07-22T10:21:01.634Z,75.23
2016-07-22T10:22:00.926Z,73.78
2016-07-22T10:23:00.917Z,74.59
2016-07-22T10:24:00.913Z,73.91
2016-07-22T10:25:01.624Z,73.08
2016-07-22T10:26:00.899Z,72.92
2016-07-22T10:27:01.605Z,71.86
2016-07-22T10:28:00.891Z,72.09
2016-07-22T10:29:00.887Z,72.47
2016-07-22T10:30:00.878Z,73.15
2016-07-22T10:31:01.580Z,72.57
2016-07-22T10:32:00.868Z,72.67
2016-07-22T10:33:00.868Z,71.25
2016-07-22T10:34:00.866Z,70.37
2016-07-22T10:35:00.855Z,68.92
2016-07-22T10:36:01.556Z,68.28
2016-07-22T10:37:01.555Z,66.82
2016-07-22T10:38:01.559Z,67.11
2016-07-22T10:39:00.835Z,69.28
2016-07-22T10:40:01.037Z,69.09
2016-07-22T10:41:00.828Z,69.15
2016-07-22T10:42:01.534Z,69.34
2016-07-22T10:43:00.820Z,68.28
2016-07-22T10:44:01.525Z,69.89
2016-07-22T10:45:00.820Z,68.73
2016-07-22T10:46:00.811Z,68.73
2016-07-22T10:47:00.807Z,70.09
2016-07-22T10:48:01.509Z,71.06
2016-07-22T10:49:01.505Z,70.37
2016-07-22T10:50:01.500Z,71.25
2016-07-22T10:51:00.789Z,69.99
2016-07-22T10:52:01.542Z,70.37
2016-07-22T10:53:00.779Z,70.86
2016-07-22T10:54:01.489Z,71.5
2016-07-22T10:55:00.770Z,71.5
2016-07-22T10:56:01.475Z,72.92
2016-07-22T10:57:01.472Z,72.63
2016-07-22T10:58:01.464Z,72.53
2016-07-22T10:59:00.762Z,73.6
2016-07-22T11:00:01.456Z,73.31
2016-07-22T11:01:00.746Z,73.41
2016-07-22T11:02:00.740Z,72.89
2016-07-22T11:03:00.737Z,71.95
2016-07-22T11:04:00.745Z,71.47
2016-07-22T11:05:01.433Z,70.76
2016-07-22T11:06:00.725Z,70.18
2016-07-22T11:07:00.715Z,71.15
2016-07-22T11:08:01.420Z,71.25
2016-07-22T11:09:00.712Z,70.34
2016-07-22T11:10:00.708Z,71.64
2016-07-22T11:11:01.404Z,71.7
2016-07-22T11:12:00.696Z,71.25
2016-07-22T11:13:00.693Z,69.7
2016-07-22T11:14:00.686Z,71.25
2016-07-22T11:15:00.683Z,70.86
2016-07-22T11:16:00.673Z,71.44
2016-07-22T11:17:00.672Z,69.83
2016-07-22T11:18:00.668Z,69.24
2016-07-22T11:19:00.663Z,67.5
2016-07-22T11:20:00.658Z,67.83
2016-07-22T11:21:00.655Z,66.76
2016-07-22T11:22:00.652Z,66.86
2016-07-22T11:23:01.407Z,66.76
2016-07-22T11:24:01.349Z,68.02
2016-07-22T11:25:00.639Z,66.56
2016-07-22T11:26:01.365Z,66.86
2016-07-22T11:27:01.342Z,67.44
2016-07-22T11:28:00.626Z,66.76
2016-07-22T11:29:00.627Z,66.08
2016-07-22T11:30:00.628Z,67.34
2016-07-22T11:31:01.323Z,67.05
2016-07-22T11:32:00.617Z,66.21
2016-07-22T11:33:00.612Z,65.11
2016-07-22T11:34:01.328Z,64.04
2016-07-22T11:35:01.323Z,64.56
2016-07-22T11:36:00.601Z,64.75
2016-07-22T11:37:00.600Z,62.06
2016-07-22T11:38:00.600Z,61.96
2016-07-22T11:39:01.301Z,60.5
2016-07-22T11:40:01.300Z,60.99
2016-07-22T11:41:00.587Z,61.28
2016-07-22T11:42:01.304Z,61.11
2016-07-22T11:43:01.299Z,60.82
2016-07-22T11:44:00.593Z,59.95
2016-07-22T11:45:01.296Z,58.71
2016-07-22T11:46:00.584Z,59.91
2016-07-22T11:47:00.586Z,56.82
2016-07-22T11:48:01.296Z,55.75
2016-07-22T11:49:00.594Z,56.16
2016-07-22T11:50:01.309Z,54.05
2016-07-22T11:51:01.293Z,54.63
2016-07-22T11:52:01.296Z,57
2016-07-22T11:53:01.305Z,52.61
2016-07-22T11:54:00.585Z,52.25
2016-07-22T11:55:01.294Z,52.83
2016-07-22T11:56:00.590Z,51.46
2016-07-22T11:57:01.294Z,52.47
2016-07-22T11:58:01.304Z,49.92
2016-07-22T11:59:01.300Z,50.63
2016-07-22T12:00:01.302Z,51.71
2016-07-22T12:01:00.597Z,50.05
2016-07-22T12:02:01.303Z,48.9
2016-07-22T12:03:00.619Z,46.18
2016-07-22T12:04:00.617Z,48.72
2016-07-22T12:05:01.361Z,49.41
2016-07-22T12:06:00.612Z,46.55
2016-07-22T12:07:01.316Z,47.41
2016-07-22T12:08:00.611Z,48.85
2016-07-22T12:09:00.614Z,48.09
2016-07-22T12:10:01.335Z,48.68
2016-07-22T12:11:00.621Z,49.53
2016-07-22T12:12:01.325Z,49.71
2016-07-22T12:13:00.728Z,51.78
2016-07-22T12:14:00.622Z,50.2
2016-07-22T12:15:00.627Z,49.8
2016-07-22T12:16:01.338Z,52.8
2016-07-22T12:17:01.345Z,52.22
2016-07-22T12:18:00.636Z,52.58
2016-07-22T12:19:00.634Z,52.19
2016-07-22T12:20:01.349Z,53.46
2016-07-22T12:21:00.635Z,54.21
2016-07-22T12:22:01.343Z,55.29
2016-07-22T12:23:01.358Z,54.77
2016-07-22T12:24:01.336Z,55.65
2016-07-22T12:25:01.355Z,54.97
2016-07-22T12:26:00.635Z,52.34
2016-07-22T12:27:00.639Z,54.68
2016-07-22T12:28:00.640Z,53.8
2016-07-22T12:29:01.343Z,52.17
2016-07-22T12:30:01.352Z,52.66
2016-07-22T12:31:00.654Z,52
2016-07-22T12:32:00.634Z,51.97
2016-07-22T12:33:01.341Z,51.97
2016-07-22T12:34:00.637Z,53.73
2016-07-22T12:35:01.373Z,53.34
2016-07-22T12:36:01.405Z,53.14
2016-07-22T12:37:00.634Z,53.75
2016-07-22T12:38:01.338Z,53.78
2016-07-22T12:39:00.627Z,52.31
2016-07-22T12:40:00.838Z,53.13
2016-07-22T12:41:01.349Z,50
2016-07-22T12:42:00.628Z,51.17
2016-07-22T12:43:00.627Z,50.75
2016-07-22T12:44:01.565Z,51.51
2016-07-22T12:45:00.623Z,51.7
2016-07-22T12:46:00.623Z,53.83
2016-07-22T12:47:01.327Z,52.56
2016-07-22T12:48:00.624Z,54.19
2016-07-22T12:49:00.636Z,55.16
2016-07-22T12:50:01.329Z,57.01
2016-07-22T12:51:01.335Z,55.26
2016-07-22T12:52:00.627Z,56.46
2016-07-22T12:53:00.619Z,55.32
2016-07-22T12:54:01.380Z,54.27
2016-07-22T12:55:00.616Z,52.64
2016-07-22T12:56:01.331Z,52.61